createdAt,value
2023-04-30T00:00:15.662Z,162.35
2023-04-30T00:03:22.516Z,168.74
2023-04-30T00:06:28.653Z,172.24
2023-04-30T00:09:38.653Z,180.08
2023-04-30T00:12:44.541Z,180.37
2023-04-30T00:15:51.642Z,182.43
2023-04-30T00:18:57.611Z,182.48
2023-04-30T00:22:05.800Z,185.51
2023-04-30T00:25:14.433Z,186.51
2023-04-30T00:28:21.187Z,189.46
2023-04-30T00:31:27.213Z,190.53
2023-04-30T00:34:34.058Z,196.41
2023-04-30T00:37:39.979Z,199.72
2023-04-30T00:40:50.648Z,200.50
2023-04-30T00:43:56.700Z,204.67
2023-04-30T00:47:04.196Z,210.08
2023-04-30T00:50:18.466Z,203.78
2023-04-30T00:53:25.414Z,194.84
2023-04-30T00:56:36.377Z,190.20
2023-04-30T00:59:45.574Z,200.87
2023-04-30T01:02:53.112Z,199.46
2023-04-30T01:06:00.016Z,206.34
2023-04-30T01:09:06.342Z,199.84
2023-04-30T01:12:29.829Z,188.17
2023-04-30T01:15:49.201Z,186.51
2023-04-30T01:19:05.100Z,183.47
2023-04-30T01:22:24.634Z,188.45
2023-04-30T01:26:05.311Z,197.76
2023-04-30T01:29:19.815Z,185.56
2023-04-30T01:32:27.013Z,168.12
2023-04-30T01:36:13.946Z,158.42
2023-04-30T01:39:51.892Z,154.28
2023-04-30T01:43:15.573Z,152.54
2023-04-30T01:46:33.585Z,144.37
2023-04-30T01:49:59.008Z,135.89
2023-04-30T01:53:12.887Z,131.87
2023-04-30T01:56:34.430Z,124.32
2023-04-30T01:59:43.013Z,115.57
2023-04-30T02:02:52.475Z,112.09
2023-04-30T02:05:59.493Z,109.31
2023-04-30T02:09:07.362Z,107.84
2023-04-30T02:12:13.358Z,107.15
2023-04-30T02:15:20.851Z,99.12
2023-04-30T02:18:41.405Z,96.95
2023-04-30T02:21:52.213Z,98.78
2023-04-30T02:24:58.538Z,90.06
2023-04-30T02:28:05.388Z,91.67
2023-04-30T02:31:11.525Z,82.83
2023-04-30T02:34:21.133Z,81.23
2023-04-30T02:37:27.407Z,91.58
2023-04-30T02:40:34.466Z,83.14
2023-04-30T02:43:40.595Z,79.61
2023-04-30T02:46:47.316Z,81.19
2023-04-30T02:49:56.140Z,78.79
2023-04-30T02:53:03.296Z,77.66
2023-04-30T02:56:12.495Z,86.81
2023-04-30T02:59:22.771Z,90.40
2023-04-30T03:02:28.846Z,97.57
2023-04-30T03:05:38.514Z,104.78
2023-04-30T03:08:44.619Z,113.77
2023-04-30T03:11:52.281Z,123.36
2023-04-30T03:14:58.396Z,130.59
2023-04-30T03:18:05.135Z,132.24
2023-04-30T03:21:13.909Z,136.54
2023-04-30T03:24:21.023Z,133.92
2023-04-30T03:27:28.137Z,136.51
2023-04-30T03:30:34.895Z,135.53
2023-04-30T03:33:40.868Z,137.67
2023-04-30T03:36:50.284Z,134.93
2023-04-30T03:39:56.511Z,135.08
2023-04-30T03:43:03.630Z,139.69
2023-04-30T03:46:09.564Z,136.51
2023-04-30T03:49:16.723Z,142.44
2023-04-30T03:52:25.361Z,140.23
2023-04-30T03:55:32.799Z,140.83
2023-04-30T03:58:41.546Z,141.40
2023-04-30T04:01:48.624Z,145.02
2023-04-30T04:04:55.751Z,146.06
2023-04-30T04:08:06.751Z,146.03
2023-04-30T04:11:13.007Z,158.15
2023-04-30T04:14:19.911Z,154.20
2023-04-30T04:17:26.234Z,156.20
2023-04-30T04:20:33.158Z,159.50
2023-04-30T04:23:41.761Z,162.33
2023-04-30T04:26:48.733Z,167.41
2023-04-30T04:29:55.575Z,164.37
2023-04-30T04:33:02.828Z,166.66
2023-04-30T04:36:09.601Z,172.56
2023-04-30T04:39:19.199Z,178.50
2023-04-30T04:42:25.198Z,177.81
2023-04-30T04:45:32.279Z,174.88
2023-04-30T04:48:38.293Z,168.27
2023-04-30T04:51:45.145Z,169.36
2023-04-30T04:54:53.660Z,159.56
2023-04-30T04:58:00.673Z,158.04
2023-04-30T05:01:07.251Z,153.00
2023-04-30T05:04:14.430Z,149.71
2023-04-30T05:07:21.008Z,140.58
2023-04-30T05:10:30.572Z,141.03
2023-04-30T05:13:36.706Z,141.87
2023-04-30T05:16:43.625Z,138.93
2023-04-30T05:19:50.952Z,140.10
2023-04-30T05:22:57.784Z,140.05
2023-04-30T05:26:12.011Z,138.02
2023-04-30T05:29:18.818Z,140.71
2023-04-30T05:32:26.547Z,133.23
2023-04-30T05:35:36.337Z,131.32
2023-04-30T05:38:42.293Z,133.55
2023-04-30T05:41:52.890Z,135.62
2023-04-30T05:44:59.401Z,131.14
2023-04-30T05:48:06.310Z,128.90
2023-04-30T05:51:14.873Z,124.33
2023-04-30T05:54:23.237Z,123.56
2023-04-30T05:57:33.357Z,122.17
2023-04-30T06:00:40.791Z,126.02
2023-04-30T06:03:46.780Z,124.30
2023-04-30T06:06:53.528Z,133.04
2023-04-30T06:09:59.741Z,127.38
2023-04-30T06:13:10.293Z,133.39
2023-04-30T06:16:16.317Z,136.39
2023-04-30T06:19:23.444Z,126.09
2023-04-30T06:22:29.408Z,128.74
2023-04-30T06:25:37.574Z,114.42
2023-04-30T06:28:46.623Z,111.44
2023-04-30T06:31:53.998Z,122.72
2023-04-30T06:35:00.035Z,111.20
2023-04-30T06:38:07.221Z,108.31
2023-04-30T06:41:13.769Z,108.22
2023-04-30T06:44:23.317Z,103.86
2023-04-30T06:47:29.380Z,103.83
2023-04-30T06:50:44.155Z,99.83
2023-04-30T06:53:50.377Z,100.56
2023-04-30T06:56:57.246Z,102.09
2023-04-30T07:00:06.155Z,102.34
2023-04-30T07:03:13.303Z,101.15
2023-04-30T07:06:19.420Z,124.20
2023-04-30T07:09:26.452Z,138.92
2023-04-30T07:12:32.536Z,138.96
2023-04-30T07:15:42.576Z,88.92
2023-04-30T07:18:49.183Z,74.74
2023-04-30T07:21:55.930Z,79.18
2023-04-30T07:25:04.973Z,94.69
2023-04-30T07:28:11.952Z,85.43
2023-04-30T07:31:20.731Z,74.68
2023-04-30T07:34:28.423Z,68.74
2023-04-30T07:37:36.014Z,75.44
2023-04-30T07:40:42.859Z,68.47
2023-04-30T07:43:48.840Z,71.60
2023-04-30T07:46:58.158Z,69.78
2023-04-30T07:50:07.805Z,70.85
2023-04-30T07:53:14.652Z,71.32
2023-04-30T07:56:20.618Z,87.46
2023-04-30T07:59:27.531Z,65.84
2023-04-30T08:02:38.290Z,66.20
2023-04-30T08:05:45.330Z,70.62
2023-04-30T08:08:51.326Z,66.83
2023-04-30T08:11:58.266Z,67.65
2023-04-30T08:15:05.849Z,59.68
2023-04-30T08:18:15.530Z,60.42
2023-04-30T08:21:21.697Z,61.70
2023-04-30T08:24:28.544Z,61.75
2023-04-30T08:27:35.405Z,62.59
2023-04-30T08:30:42.661Z,57.79
2023-04-30T08:33:51.357Z,57.43
2023-04-30T08:37:00.602Z,56.09
2023-04-30T08:40:12.587Z,55.97
2023-04-30T08:43:21.773Z,54.86
2023-04-30T08:46:31.332Z,53.67
2023-04-30T08:49:41.460Z,56.90
2023-04-30T08:52:47.560Z,54.01
2023-04-30T08:55:54.541Z,49.33
2023-04-30T08:59:00.526Z,48.53
2023-04-30T09:02:08.249Z,47.95
2023-04-30T09:05:18.935Z,49.33
2023-04-30T09:08:47.740Z,48.23
2023-04-30T09:11:53.809Z,51.95
2023-04-30T09:15:06.484Z,47.00
2023-04-30T09:18:17.997Z,50.15
2023-04-30T09:21:39.723Z,47.15
2023-04-30T09:24:51.292Z,46.75
2023-04-30T09:28:12.331Z,45.81
2023-04-30T09:31:25.028Z,50.82
2023-04-30T09:34:38.479Z,43.81
2023-04-30T09:37:47.059Z,45.10
2023-04-30T09:40:54.135Z,44.13
2023-04-30T09:44:01.367Z,43.09
2023-04-30T09:47:08.850Z,41.58
2023-04-30T09:50:17.453Z,43.83
2023-04-30T09:53:26.792Z,43.65
2023-04-30T09:56:39.725Z,43.08
2023-04-30T09:59:49.765Z,44.51
2023-04-30T10:02:57.486Z,40.58
2023-04-30T10:06:05.042Z,44.93
2023-04-30T10:09:17.143Z,41.41
2023-04-30T10:12:33.256Z,41.69
2023-04-30T10:15:49.021Z,41.27
2023-04-30T10:19:02.700Z,38.32
2023-04-30T10:22:09.384Z,39.92
2023-04-30T10:25:20.019Z,41.02
2023-04-30T10:28:27.286Z,34.98
2023-04-30T10:31:35.953Z,36.99
2023-04-30T10:34:56.163Z,35.57
2023-04-30T10:38:22.125Z,39.49
2023-04-30T10:41:31.210Z,40.90
2023-04-30T10:44:40.620Z,41.42
2023-04-30T10:47:48.680Z,36.12
2023-04-30T10:50:59.933Z,40.52
2023-04-30T10:54:06.796Z,41.07
2023-04-30T10:57:20.447Z,38.18
2023-04-30T11:00:32.609Z,36.26
2023-04-30T11:03:41.488Z,42.49
2023-04-30T11:07:05.263Z,42.86
2023-04-30T11:10:12.723Z,39.02
2023-04-30T11:13:23.154Z,42.31
2023-04-30T11:16:33.554Z,41.76
2023-04-30T11:19:55.063Z,38.57
2023-04-30T11:23:22.192Z,41.55
2023-04-30T11:27:09.207Z,39.53
2023-04-30T11:30:24.885Z,38.55
2023-04-30T11:33:36.391Z,38.69
2023-04-30T11:36:51.685Z,42.93
2023-04-30T11:40:00.305Z,44.81
2023-04-30T11:43:07.046Z,42.88
2023-04-30T11:46:19.080Z,41.77
2023-04-30T11:49:26.059Z,43.72
2023-04-30T11:52:32.067Z,40.22
2023-04-30T11:55:40.579Z,37.89
2023-04-30T11:58:46.660Z,43.27
2023-04-30T12:01:57.741Z,40.81
2023-04-30T12:05:03.949Z,38.30
2023-04-30T12:08:20.091Z,36.01
2023-04-30T12:11:46.104Z,37.55
2023-04-30T12:14:53.060Z,38.44
2023-04-30T12:18:03.663Z,40.44
2023-04-30T12:21:12.192Z,37.40
2023-04-30T12:24:20.737Z,39.29
2023-04-30T12:27:28.023Z,38.53
2023-04-30T12:30:36.537Z,35.77
2023-04-30T12:33:45.943Z,39.25
2023-04-30T12:36:51.750Z,34.96
2023-04-30T12:40:00.563Z,35.80
2023-04-30T12:43:17.642Z,37.87
2023-04-30T12:46:30.737Z,43.28
2023-04-30T12:49:53.030Z,35.40
2023-04-30T12:53:05.821Z,35.00
2023-04-30T12:56:16.913Z,41.19
2023-04-30T12:59:23.795Z,35.21
2023-04-30T13:02:32.770Z,36.53
2023-04-30T13:05:43.464Z,37.59
2023-04-30T13:08:57.985Z,37.55
2023-04-30T13:12:10.192Z,35.64
2023-04-30T13:15:26.513Z,38.13
2023-04-30T13:18:33.188Z,35.69
2023-04-30T13:21:48.802Z,37.04
2023-04-30T13:24:59.934Z,39.93
2023-04-30T13:28:15.298Z,36.16
2023-04-30T13:31:22.519Z,37.01
2023-04-30T13:34:28.474Z,38.77
2023-04-30T13:37:39.792Z,37.25
2023-04-30T13:40:45.611Z,37.05
2023-04-30T13:43:52.930Z,36.37
2023-04-30T13:46:58.815Z,35.07
2023-04-30T13:50:20.130Z,41.85
2023-04-30T13:53:32.611Z,36.36
2023-04-30T13:56:39.503Z,35.26
2023-04-30T13:59:45.486Z,35.06
2023-04-30T14:02:52.691Z,38.80
2023-04-30T14:05:59.381Z,36.71
2023-04-30T14:09:09.114Z,32.83
2023-04-30T14:12:22.750Z,35.32
2023-04-30T14:15:30.931Z,35.51
2023-04-30T14:18:37.350Z,37.88
2023-04-30T14:21:46.546Z,36.80
2023-04-30T14:24:56.277Z,39.37
2023-04-30T14:28:03.037Z,35.56
2023-04-30T14:31:09.555Z,40.25
2023-04-30T14:34:20.061Z,34.75
2023-04-30T14:37:26.067Z,50.22
2023-04-30T14:40:36.010Z,50.39
2023-04-30T14:43:45.456Z,44.55
2023-04-30T14:46:52.227Z,38.58
2023-04-30T14:50:02.933Z,38.50
2023-04-30T14:53:11.719Z,36.72
2023-04-30T14:56:24.438Z,32.60
2023-04-30T14:59:32.527Z,33.06
2023-04-30T15:02:38.863Z,29.66
2023-04-30T15:05:47.160Z,32.20
2023-04-30T15:08:53.165Z,35.11
2023-04-30T15:12:05.049Z,35.86
2023-04-30T15:15:13.340Z,34.22
2023-04-30T15:18:23.165Z,35.93
2023-04-30T15:21:36.075Z,41.19
2023-04-30T15:24:42.768Z,47.76
2023-04-30T15:27:52.078Z,36.99
2023-04-30T15:30:58.783Z,50.59
2023-04-30T15:34:04.674Z,32.76
2023-04-30T15:37:11.679Z,32.92
2023-04-30T15:40:18.122Z,30.49
2023-04-30T15:43:27.754Z,38.24
2023-04-30T15:46:36.490Z,29.61
2023-04-30T15:49:43.936Z,25.50
2023-04-30T15:52:50.072Z,28.16
2023-04-30T15:55:57.515Z,30.69
2023-04-30T15:59:06.520Z,31.03
2023-04-30T16:02:14.261Z,30.17
2023-04-30T16:05:20.410Z,32.62
2023-04-30T16:08:36.597Z,31.70
2023-04-30T16:11:44.873Z,33.99
2023-04-30T16:14:54.400Z,29.12
2023-04-30T16:18:00.477Z,27.85
2023-04-30T16:21:10.805Z,30.52
2023-04-30T16:24:19.267Z,28.82
2023-04-30T16:27:26.297Z,25.90
2023-04-30T16:30:36.391Z,24.29
2023-04-30T16:33:43.459Z,27.08
2023-04-30T16:36:49.494Z,27.44
2023-04-30T16:39:58.644Z,27.83
2023-04-30T16:43:06.378Z,27.94
2023-04-30T16:46:16.553Z,26.73
2023-04-30T16:49:22.833Z,26.71
2023-04-30T16:52:30.401Z,25.62
2023-04-30T16:55:36.358Z,28.36
2023-04-30T16:58:43.111Z,60.65
2023-04-30T17:01:52.172Z,66.17
2023-04-30T17:05:02.013Z,36.96
2023-04-30T17:08:08.944Z,36.31
2023-04-30T17:11:19.374Z,40.44
2023-04-30T17:14:25.634Z,35.56
2023-04-30T17:17:35.282Z,40.18
2023-04-30T17:20:41.489Z,46.67
2023-04-30T17:23:48.245Z,45.38
2023-04-30T17:26:54.986Z,33.08
2023-04-30T17:30:01.830Z,29.57
2023-04-30T17:33:12.312Z,33.39
2023-04-30T17:36:19.254Z,30.41
2023-04-30T17:39:31.219Z,28.58
2023-04-30T17:42:39.219Z,26.85
2023-04-30T17:45:46.465Z,24.78
2023-04-30T17:48:56.529Z,29.91
2023-04-30T17:52:02.432Z,29.45
2023-04-30T17:55:11.033Z,28.62
2023-04-30T17:58:17.100Z,28.30
2023-04-30T18:01:24.409Z,27.43
2023-04-30T18:04:35.991Z,31.99
2023-04-30T18:07:42.682Z,32.31
2023-04-30T18:10:52.005Z,31.50
2023-04-30T18:13:58.965Z,35.20
2023-04-30T18:17:07.949Z,35.79
2023-04-30T18:20:19.712Z,37.27
2023-04-30T18:23:32.251Z,43.14
2023-04-30T18:26:44.608Z,44.25
2023-04-30T18:29:50.711Z,47.47
2023-04-30T18:32:57.672Z,45.93
2023-04-30T18:36:07.833Z,46.37
2023-04-30T18:39:15.187Z,45.69
2023-04-30T18:42:21.253Z,49.81
2023-04-30T18:45:41.320Z,46.58
2023-04-30T18:48:47.398Z,48.47
2023-04-30T18:51:57.586Z,51.67
2023-04-30T18:55:07.599Z,67.56
2023-04-30T18:58:15.225Z,84.83
2023-04-30T19:01:21.828Z,89.18
2023-04-30T19:04:28.803Z,86.03
2023-04-30T19:07:41.683Z,78.47
2023-04-30T19:10:56.687Z,78.48
2023-04-30T19:14:06.905Z,77.73
2023-04-30T19:17:19.443Z,90.53
2023-04-30T19:20:32.380Z,117.22
2023-04-30T19:23:42.765Z,123.14
2023-04-30T19:26:51.112Z,128.90
2023-04-30T19:29:59.502Z,132.44
2023-04-30T19:33:05.842Z,133.33
2023-04-30T19:36:12.933Z,134.79
2023-04-30T19:39:22.136Z,133.43
2023-04-30T19:42:30.659Z,118.88
2023-04-30T19:45:36.620Z,113.52
2023-04-30T19:48:43.491Z,127.15
2023-04-30T19:51:49.534Z,141.25
2023-04-30T19:54:58.911Z,149.85
2023-04-30T19:58:05.156Z,153.11
2023-04-30T20:01:13.869Z,153.12
2023-04-30T20:04:20.857Z,146.78
2023-04-30T20:07:27.931Z,146.47
2023-04-30T20:10:44.556Z,150.28
2023-04-30T20:13:51.786Z,160.04
2023-04-30T20:16:57.773Z,158.34
2023-04-30T20:20:15.636Z,149.78
2023-04-30T20:23:25.283Z,160.99
2023-04-30T20:26:34.860Z,188.40
2023-04-30T20:29:41.561Z,198.40
2023-04-30T20:32:49.561Z,207.10
2023-04-30T20:35:55.792Z,203.35
2023-04-30T20:39:04.899Z,198.98
2023-04-30T20:42:19.599Z,208.27
2023-04-30T20:45:26.527Z,226.45
2023-04-30T20:48:32.513Z,256.38
2023-04-30T20:51:41.695Z,250.33
2023-04-30T20:54:51.046Z,252.45
2023-04-30T20:58:00.471Z,249.72
2023-04-30T21:01:12.480Z,240.00
2023-04-30T21:04:19.370Z,235.28
2023-04-30T21:07:25.348Z,238.19
2023-04-30T21:10:36.863Z,251.12
2023-04-30T21:13:45.638Z,264.45
2023-04-30T21:16:52.784Z,264.27
2023-04-30T21:19:59.564Z,265.75
2023-04-30T21:23:06.341Z,287.47
2023-04-30T21:26:12.612Z,250.93
2023-04-30T21:29:22.170Z,241.22
2023-04-30T21:32:28.275Z,226.00
2023-04-30T21:35:36.105Z,221.54
2023-04-30T21:38:42.560Z,216.49
2023-04-30T21:41:49.458Z,207.95
2023-04-30T21:44:58.600Z,225.25
2023-04-30T21:48:05.913Z,235.94
2023-04-30T21:51:17.222Z,240.35
2023-04-30T21:54:24.138Z,238.20
2023-04-30T21:57:30.138Z,227.98
2023-04-30T22:00:39.886Z,233.38
2023-04-30T22:03:46.423Z,229.25
2023-04-30T22:06:53.337Z,226.25
2023-04-30T22:09:59.469Z,223.10
2023-04-30T22:13:06.244Z,223.52
2023-04-30T22:16:14.818Z,223.71
2023-04-30T22:19:21.541Z,238.49
2023-04-30T22:22:28.016Z,262.58
2023-04-30T22:25:34.731Z,288.11
2023-04-30T22:28:40.808Z,289.20
2023-04-30T22:31:50.242Z,249.84
2023-04-30T22:34:56.482Z,264.61
2023-04-30T22:38:03.850Z,262.77
2023-04-30T22:41:09.892Z,243.27
2023-04-30T22:44:17.940Z,235.99
2023-04-30T22:47:27.701Z,246.66
2023-04-30T22:50:34.722Z,258.52
2023-04-30T22:53:40.833Z,252.21
2023-04-30T22:56:47.612Z,270.68
2023-04-30T22:59:54.303Z,271.54
2023-04-30T23:03:03.933Z,310.30
2023-04-30T23:06:09.981Z,427.47
2023-04-30T23:09:16.829Z,419.47
2023-04-30T23:12:22.826Z,372.11
2023-04-30T23:15:29.868Z,342.04
2023-04-30T23:18:39.828Z,299.21
2023-04-30T23:21:46.553Z,278.64
2023-04-30T23:24:52.487Z,276.58
2023-04-30T23:27:59.648Z,274.24
2023-04-30T23:31:05.977Z,269.42
2023-04-30T23:34:15.501Z,286.50
2023-04-30T23:37:21.982Z,282.89
2023-04-30T23:40:31.505Z,275.47
2023-04-30T23:43:37.568Z,274.49
2023-04-30T23:46:44.468Z,453.29
2023-04-30T23:49:53.259Z,849.70
2023-04-30T23:53:00.013Z,515.18
2023-04-30T23:56:06.512Z,271.67
2023-04-30T23:59:15.569Z,272.39
